<?xml version="1.0" encoding="UTF-8" standalone="no" ?>
<gpx xmlns="http://www.topografix.com/GPX/1/1" xmlns:xsi="http://www.w3.org/2001/XMLSchema-instance" xsi:schemaLocation="http://www.topografix.com/GPX/1/1 http://www.topografix.com/GPX/1/1/gpx.xsd" version="1.1" creator="VisuGPX - https://www.visugpx.com">
  <metadata>
    <name>Bagnols -Pennafort -Fille d'Isnard</name>
    <desc><![CDATA[avec RA]]></desc>
  </metadata>
  <trk>
    <name><![CDATA[Bagnols -Pennafort -Fille d'Isnard_14]]></name>
    <trkseg>
      <trkpt lat="43.58648" lon="6.77154">
        <ele>154.5</ele>
        <time>2025-10-24T08:53:56.000Z</time>
      </trkpt>
      <trkpt lat="43.58648" lon="6.77151">
        <ele>154.5</ele>
        <time>2025-10-24T08:53:57.000Z</time>
      </trkpt>
      <trkpt lat="43.58646" lon="6.7715">
        <ele>154.5</ele>
        <time>2025-10-24T08:53:58.000Z</time>
      </trkpt>
      <trkpt lat="43.58644" lon="6.77149">
        <ele>154.6</ele>
        <time>2025-10-24T08:53:59.000Z</time>
      </trkpt>
      <trkpt lat="43.58641" lon="6.77149">
        <ele>154.7</ele>
        <time>2025-10-24T08:54:00.000Z</time>
      </trkpt>
      <trkpt lat="43.58637" lon="6.77149">
        <ele>154.8</ele>
        <time>2025-10-24T08:54:01.000Z</time>
      </trkpt>
      <trkpt lat="43.58634" lon="6.77149">
        <ele>154.9</ele>
        <time>2025-10-24T08:54:02.000Z</time>
      </trkpt>
      <trkpt lat="43.5863" lon="6.77149">
        <ele>154.9</ele>
        <time>2025-10-24T08:54:03.000Z</time>
      </trkpt>
      <trkpt lat="43.58627" lon="6.77149">
        <ele>155</ele>
        <time>2025-10-24T08:54:04.000Z</time>
      </trkpt>
      <trkpt lat="43.58624" lon="6.77149">
        <ele>155</ele>
        <time>2025-10-24T08:54:05.000Z</time>
      </trkpt>
      <trkpt lat="43.5862" lon="6.7715">
        <ele>155.1</ele>
        <time>2025-10-24T08:54:06.000Z</time>
      </trkpt>
      <trkpt lat="43.58615" lon="6.7715">
        <ele>155.2</ele>
        <time>2025-10-24T08:54:07.000Z</time>
      </trkpt>
      <trkpt lat="43.58611" lon="6.7715">
        <ele>155.2</ele>
        <time>2025-10-24T08:54:08.000Z</time>
      </trkpt>
      <trkpt lat="43.58607" lon="6.77149">
        <ele>155.3</ele>
        <time>2025-10-24T08:54:09.000Z</time>
      </trkpt>
      <trkpt lat="43.58602" lon="6.77149">
        <ele>155.4</ele>
        <time>2025-10-24T08:54:10.000Z</time>
      </trkpt>
      <trkpt lat="43.58598" lon="6.77149">
        <ele>155.6</ele>
        <time>2025-10-24T08:54:11.000Z</time>
      </trkpt>
      <trkpt lat="43.58594" lon="6.77149">
        <ele>155.7</ele>
        <time>2025-10-24T08:54:12.000Z</time>
      </trkpt>
      <trkpt lat="43.5859" lon="6.7715">
        <ele>155.8</ele>
        <time>2025-10-24T08:54:13.000Z</time>
      </trkpt>
      <trkpt lat="43.58586" lon="6.7715">
        <ele>155.9</ele>
        <time>2025-10-24T08:54:14.000Z</time>
      </trkpt>
      <trkpt lat="43.58583" lon="6.7715">
        <ele>156</ele>
        <time>2025-10-24T08:54:15.000Z</time>
      </trkpt>
      <trkpt lat="43.5858" lon="6.77151">
        <ele>156.1</ele>
        <time>2025-10-24T08:54:16.000Z</time>
      </trkpt>
      <trkpt lat="43.58576" lon="6.77151">
        <ele>156.3</ele>
        <time>2025-10-24T08:54:17.000Z</time>
      </trkpt>
      <trkpt lat="43.58573" lon="6.77152">
        <ele>156.4</ele>
        <time>2025-10-24T08:54:18.000Z</time>
      </trkpt>
      <trkpt lat="43.5857" lon="6.77152">
        <ele>156.6</ele>
        <time>2025-10-24T08:54:19.000Z</time>
      </trkpt>
      <trkpt lat="43.58565" lon="6.77153">
        <ele>156.8</ele>
        <time>2025-10-24T08:54:20.000Z</time>
      </trkpt>
      <trkpt lat="43.58562" lon="6.77154">
        <ele>157.1</ele>
        <time>2025-10-24T08:54:21.000Z</time>
      </trkpt>
      <trkpt lat="43.58558" lon="6.77155">
        <ele>157.3</ele>
        <time>2025-10-24T08:54:22.000Z</time>
      </trkpt>
      <trkpt lat="43.58555" lon="6.77156">
        <ele>157.5</ele>
        <time>2025-10-24T08:54:23.000Z</time>
      </trkpt>
      <trkpt lat="43.5855" lon="6.77157">
        <ele>157.9</ele>
        <time>2025-10-24T08:54:24.000Z</time>
      </trkpt>
      <trkpt lat="43.58546" lon="6.77158">
        <ele>158.2</ele>
        <time>2025-10-24T08:54:25.000Z</time>
      </trkpt>
      <trkpt lat="43.58542" lon="6.77159">
        <ele>158.4</ele>
        <time>2025-10-24T08:54:26.000Z</time>
      </trkpt>
      <trkpt lat="43.58539" lon="6.7716">
        <ele>158.7</ele>
        <time>2025-10-24T08:54:27.000Z</time>
      </trkpt>
      <trkpt lat="43.58534" lon="6.77162">
        <ele>159</ele>
        <time>2025-10-24T08:54:28.000Z</time>
      </trkpt>
      <trkpt lat="43.58529" lon="6.77164">
        <ele>159.3</ele>
        <time>2025-10-24T08:54:29.000Z</time>
      </trkpt>
      <trkpt lat="43.58525" lon="6.77166">
        <ele>159.6</ele>
        <time>2025-10-24T08:54:30.000Z</time>
      </trkpt>
      <trkpt lat="43.5852" lon="6.77167">
        <ele>159.8</ele>
        <time>2025-10-24T08:54:31.000Z</time>
      </trkpt>
      <trkpt lat="43.58517" lon="6.77169">
        <ele>160</ele>
        <time>2025-10-24T08:54:32.000Z</time>
      </trkpt>
      <trkpt lat="43.58512" lon="6.77172">
        <ele>160.2</ele>
        <time>2025-10-24T08:54:33.000Z</time>
      </trkpt>
      <trkpt lat="43.58507" lon="6.77173">
        <ele>160.5</ele>
        <time>2025-10-24T08:54:34.000Z</time>
      </trkpt>
      <trkpt lat="43.58503" lon="6.77175">
        <ele>160.7</ele>
        <time>2025-10-24T08:54:35.000Z</time>
      </trkpt>
      <trkpt lat="43.58499" lon="6.77177">
        <ele>160.9</ele>
        <time>2025-10-24T08:54:36.000Z</time>
      </trkpt>
      <trkpt lat="43.58494" lon="6.77178">
        <ele>161.1</ele>
        <time>2025-10-24T08:54:37.000Z</time>
      </trkpt>
      <trkpt lat="43.5849" lon="6.7718">
        <ele>161.3</ele>
        <time>2025-10-24T08:54:38.000Z</time>
      </trkpt>
      <trkpt lat="43.58485" lon="6.77182">
        <ele>161.5</ele>
        <time>2025-10-24T08:54:39.000Z</time>
      </trkpt>
      <trkpt lat="43.58481" lon="6.77183">
        <ele>161.6</ele>
        <time>2025-10-24T08:54:40.000Z</time>
      </trkpt>
      <trkpt lat="43.58476" lon="6.77184">
        <ele>161.8</ele>
        <time>2025-10-24T08:54:41.000Z</time>
      </trkpt>
      <trkpt lat="43.58472" lon="6.77185">
        <ele>162</ele>
        <time>2025-10-24T08:54:42.000Z</time>
      </trkpt>
      <trkpt lat="43.58467" lon="6.77186">
        <ele>162.1</ele>
        <time>2025-10-24T08:54:43.000Z</time>
      </trkpt>
      <trkpt lat="43.58462" lon="6.77187">
        <ele>162.3</ele>
        <time>2025-10-24T08:54:44.000Z</time>
      </trkpt>
      <trkpt lat="43.58457" lon="6.77187">
        <ele>162.4</ele>
        <time>2025-10-24T08:54:45.000Z</time>
      </trkpt>
      <trkpt lat="43.58453" lon="6.77187">
        <ele>162.5</ele>
        <time>2025-10-24T08:54:46.000Z</time>
      </trkpt>
      <trkpt lat="43.58448" lon="6.77187">
        <ele>162.6</ele>
        <time>2025-10-24T08:54:47.000Z</time>
      </trkpt>
      <trkpt lat="43.58444" lon="6.77188">
        <ele>162.6</ele>
        <time>2025-10-24T08:54:48.000Z</time>
      </trkpt>
      <trkpt lat="43.58439" lon="6.77189">
        <ele>162.7</ele>
        <time>2025-10-24T08:54:49.000Z</time>
      </trkpt>
      <trkpt lat="43.58435" lon="6.77189">
        <ele>162.8</ele>
        <time>2025-10-24T08:54:50.000Z</time>
      </trkpt>
      <trkpt lat="43.5843" lon="6.7719">
        <ele>162.9</ele>
        <time>2025-10-24T08:54:51.000Z</time>
      </trkpt>
      <trkpt lat="43.58425" lon="6.7719">
        <ele>163</ele>
        <time>2025-10-24T08:54:52.000Z</time>
      </trkpt>
      <trkpt lat="43.5842" lon="6.77191">
        <ele>163.1</ele>
        <time>2025-10-24T08:54:53.000Z</time>
      </trkpt>
      <trkpt lat="43.58415" lon="6.7719">
        <ele>163.2</ele>
        <time>2025-10-24T08:54:54.000Z</time>
      </trkpt>
      <trkpt lat="43.5841" lon="6.7719">
        <ele>163.4</ele>
        <time>2025-10-24T08:54:55.000Z</time>
      </trkpt>
      <trkpt lat="43.58404" lon="6.77189">
        <ele>163.6</ele>
        <time>2025-10-24T08:54:56.000Z</time>
      </trkpt>
      <trkpt lat="43.584" lon="6.77188">
        <ele>163.8</ele>
        <time>2025-10-24T08:54:57.000Z</time>
      </trkpt>
      <trkpt lat="43.58396" lon="6.77187">
        <ele>164</ele>
        <time>2025-10-24T08:54:58.000Z</time>
      </trkpt>
      <trkpt lat="43.58391" lon="6.77186">
        <ele>164.2</ele>
        <time>2025-10-24T08:54:59.000Z</time>
      </trkpt>
      <trkpt lat="43.58386" lon="6.77185">
        <ele>164.4</ele>
        <time>2025-10-24T08:55:00.000Z</time>
      </trkpt>
      <trkpt lat="43.58382" lon="6.77184">
        <ele>164.6</ele>
        <time>2025-10-24T08:55:01.000Z</time>
      </trkpt>
      <trkpt lat="43.58377" lon="6.77184">
        <ele>164.9</ele>
        <time>2025-10-24T08:55:02.000Z</time>
      </trkpt>
      <trkpt lat="43.58374" lon="6.77183">
        <ele>165.1</ele>
        <time>2025-10-24T08:55:03.000Z</time>
      </trkpt>
      <trkpt lat="43.58368" lon="6.77183">
        <ele>165.4</ele>
        <time>2025-10-24T08:55:04.000Z</time>
      </trkpt>
      <trkpt lat="43.58364" lon="6.77183">
        <ele>165.7</ele>
        <time>2025-10-24T08:55:05.000Z</time>
      </trkpt>
      <trkpt lat="43.58361" lon="6.77182">
        <ele>165.9</ele>
        <time>2025-10-24T08:55:06.000Z</time>
      </trkpt>
      <trkpt lat="43.58356" lon="6.77182">
        <ele>166.2</ele>
        <time>2025-10-24T08:55:07.000Z</time>
      </trkpt>
      <trkpt lat="43.58353" lon="6.77182">
        <ele>166.3</ele>
        <time>2025-10-24T08:55:08.000Z</time>
      </trkpt>
      <trkpt lat="43.58349" lon="6.77182">
        <ele>166.5</ele>
        <time>2025-10-24T08:55:09.000Z</time>
      </trkpt>
      <trkpt lat="43.58346" lon="6.77182">
        <ele>166.6</ele>
        <time>2025-10-24T08:55:10.000Z</time>
      </trkpt>
      <trkpt lat="43.58343" lon="6.77182">
        <ele>166.7</ele>
        <time>2025-10-24T08:55:11.000Z</time>
      </trkpt>
      <trkpt lat="43.58341" lon="6.77181">
        <ele>166.8</ele>
        <time>2025-10-24T08:55:12.000Z</time>
      </trkpt>
      <trkpt lat="43.58339" lon="6.77181">
        <ele>166.7</ele>
        <time>2025-10-24T08:55:13.000Z</time>
      </trkpt>
      <trkpt lat="43.58336" lon="6.77181">
        <ele>166.6</ele>
        <time>2025-10-24T08:55:14.000Z</time>
      </trkpt>
      <trkpt lat="43.58333" lon="6.77181">
        <ele>166.4</ele>
        <time>2025-10-24T08:55:15.000Z</time>
      </trkpt>
      <trkpt lat="43.5833" lon="6.77181">
        <ele>166.3</ele>
        <time>2025-10-24T08:55:16.000Z</time>
      </trkpt>
      <trkpt lat="43.58327" lon="6.77182">
        <ele>166</ele>
        <time>2025-10-24T08:55:17.000Z</time>
      </trkpt>
      <trkpt lat="43.58324" lon="6.77183">
        <ele>165.8</ele>
        <time>2025-10-24T08:55:18.000Z</time>
      </trkpt>
      <trkpt lat="43.5832" lon="6.77184">
        <ele>165.5</ele>
        <time>2025-10-24T08:55:19.000Z</time>
      </trkpt>
      <trkpt lat="43.58316" lon="6.77185">
        <ele>165.2</ele>
        <time>2025-10-24T08:55:20.000Z</time>
      </trkpt>
      <trkpt lat="43.58311" lon="6.77186">
        <ele>164.9</ele>
        <time>2025-10-24T08:55:21.000Z</time>
      </trkpt>
      <trkpt lat="43.58307" lon="6.77187">
        <ele>164.4</ele>
        <time>2025-10-24T08:55:22.000Z</time>
      </trkpt>
      <trkpt lat="43.58302" lon="6.77188">
        <ele>164</ele>
        <time>2025-10-24T08:55:23.000Z</time>
      </trkpt>
      <trkpt lat="43.58297" lon="6.77189">
        <ele>163.5</ele>
        <time>2025-10-24T08:55:24.000Z</time>
      </trkpt>
      <trkpt lat="43.58292" lon="6.7719">
        <ele>162.9</ele>
        <time>2025-10-24T08:55:25.000Z</time>
      </trkpt>
      <trkpt lat="43.58286" lon="6.77191">
        <ele>162.3</ele>
        <time>2025-10-24T08:55:26.000Z</time>
      </trkpt>
      <trkpt lat="43.58281" lon="6.77191">
        <ele>161.7</ele>
        <time>2025-10-24T08:55:27.000Z</time>
      </trkpt>
      <trkpt lat="43.58276" lon="6.77192">
        <ele>161</ele>
        <time>2025-10-24T08:55:28.000Z</time>
      </trkpt>
      <trkpt lat="43.58271" lon="6.77192">
        <ele>160.4</ele>
        <time>2025-10-24T08:55:29.000Z</time>
      </trkpt>
      <trkpt lat="43.58267" lon="6.77193">
        <ele>159.9</ele>
        <time>2025-10-24T08:55:30.000Z</time>
      </trkpt>
      <trkpt lat="43.58263" lon="6.77193">
        <ele>159.4</ele>
        <time>2025-10-24T08:55:31.000Z</time>
      </trkpt>
      <trkpt lat="43.58258" lon="6.77194">
        <ele>158.8</ele>
        <time>2025-10-24T08:55:32.000Z</time>
      </trkpt>
      <trkpt lat="43.58254" lon="6.77194">
        <ele>158.3</ele>
        <time>2025-10-24T08:55:33.000Z</time>
      </trkpt>
      <trkpt lat="43.58249" lon="6.77195">
        <ele>157.8</ele>
        <time>2025-10-24T08:55:34.000Z</time>
      </trkpt>
      <trkpt lat="43.58243" lon="6.77195">
        <ele>157.3</ele>
        <time>2025-10-24T08:55:35.000Z</time>
      </trkpt>
      <trkpt lat="43.58237" lon="6.77195">
        <ele>156.8</ele>
        <time>2025-10-24T08:55:36.000Z</time>
      </trkpt>
      <trkpt lat="43.58231" lon="6.77195">
        <ele>156.4</ele>
        <time>2025-10-24T08:55:37.000Z</time>
      </trkpt>
      <trkpt lat="43.58225" lon="6.77193">
        <ele>156.1</ele>
        <time>2025-10-24T08:55:38.000Z</time>
      </trkpt>
      <trkpt lat="43.58218" lon="6.77191">
        <ele>155.8</ele>
        <time>2025-10-24T08:55:39.000Z</time>
      </trkpt>
      <trkpt lat="43.58212" lon="6.77189">
        <ele>155.6</ele>
        <time>2025-10-24T08:55:40.000Z</time>
      </trkpt>
      <trkpt lat="43.58206" lon="6.77187">
        <ele>155.5</ele>
        <time>2025-10-24T08:55:41.000Z</time>
      </trkpt>
      <trkpt lat="43.582" lon="6.77185">
        <ele>155.4</ele>
        <time>2025-10-24T08:55:42.000Z</time>
      </trkpt>
      <trkpt lat="43.58194" lon="6.77183">
        <ele>155.3</ele>
        <time>2025-10-24T08:55:43.000Z</time>
      </trkpt>
      <trkpt lat="43.58188" lon="6.7718">
        <ele>155.3</ele>
        <time>2025-10-24T08:55:44.000Z</time>
      </trkpt>
      <trkpt lat="43.58182" lon="6.77179">
        <ele>155.3</ele>
        <time>2025-10-24T08:55:45.000Z</time>
      </trkpt>
      <trkpt lat="43.58175" lon="6.77177">
        <ele>155.3</ele>
        <time>2025-10-24T08:55:46.000Z</time>
      </trkpt>
      <trkpt lat="43.5817" lon="6.77176">
        <ele>155.3</ele>
        <time>2025-10-24T08:55:47.000Z</time>
      </trkpt>
      <trkpt lat="43.58164" lon="6.77175">
        <ele>155.3</ele>
        <time>2025-10-24T08:55:48.000Z</time>
      </trkpt>
      <trkpt lat="43.58158" lon="6.77175">
        <ele>155.3</ele>
        <time>2025-10-24T08:55:49.000Z</time>
      </trkpt>
      <trkpt lat="43.58152" lon="6.77175">
        <ele>155.3</ele>
        <time>2025-10-24T08:55:50.000Z</time>
      </trkpt>
      <trkpt lat="43.58146" lon="6.77175">
        <ele>155.2</ele>
        <time>2025-10-24T08:55:51.000Z</time>
      </trkpt>
      <trkpt lat="43.58141" lon="6.77174">
        <ele>155.2</ele>
        <time>2025-10-24T08:55:52.000Z</time>
      </trkpt>
      <trkpt lat="43.58135" lon="6.77174">
        <ele>155.1</ele>
        <time>2025-10-24T08:55:53.000Z</time>
      </trkpt>
      <trkpt lat="43.58129" lon="6.77173">
        <ele>155</ele>
        <time>2025-10-24T08:55:54.000Z</time>
      </trkpt>
      <trkpt lat="43.58124" lon="6.77172">
        <ele>154.9</ele>
        <time>2025-10-24T08:55:55.000Z</time>
      </trkpt>
      <trkpt lat="43.58119" lon="6.7717">
        <ele>154.9</ele>
        <time>2025-10-24T08:55:56.000Z</time>
      </trkpt>
      <trkpt lat="43.58114" lon="6.77167">
        <ele>154.8</ele>
        <time>2025-10-24T08:55:57.000Z</time>
      </trkpt>
      <trkpt lat="43.58109" lon="6.77163">
        <ele>154.7</ele>
        <time>2025-10-24T08:55:58.000Z</time>
      </trkpt>
      <trkpt lat="43.58105" lon="6.7716">
        <ele>154.7</ele>
        <time>2025-10-24T08:55:59.000Z</time>
      </trkpt>
      <trkpt lat="43.58102" lon="6.77155">
        <ele>154.6</ele>
        <time>2025-10-24T08:56:00.000Z</time>
      </trkpt>
      <trkpt lat="43.58098" lon="6.77151">
        <ele>154.5</ele>
        <time>2025-10-24T08:56:01.000Z</time>
      </trkpt>
      <trkpt lat="43.58094" lon="6.77148">
        <ele>154.4</ele>
        <time>2025-10-24T08:56:02.000Z</time>
      </trkpt>
      <trkpt lat="43.58089" lon="6.77146">
        <ele>154.3</ele>
        <time>2025-10-24T08:56:03.000Z</time>
      </trkpt>
      <trkpt lat="43.58084" lon="6.77145">
        <ele>154.2</ele>
        <time>2025-10-24T08:56:04.000Z</time>
      </trkpt>
      <trkpt lat="43.58079" lon="6.77145">
        <ele>154.1</ele>
        <time>2025-10-24T08:56:05.000Z</time>
      </trkpt>
      <trkpt lat="43.58075" lon="6.77147">
        <ele>154</ele>
        <time>2025-10-24T08:56:06.000Z</time>
      </trkpt>
      <trkpt lat="43.58071" lon="6.77149">
        <ele>153.9</ele>
        <time>2025-10-24T08:56:07.000Z</time>
      </trkpt>
      <trkpt lat="43.58067" lon="6.77152">
        <ele>153.7</ele>
        <time>2025-10-24T08:56:08.000Z</time>
      </trkpt>
      <trkpt lat="43.58064" lon="6.77156">
        <ele>153.5</ele>
        <time>2025-10-24T08:56:09.000Z</time>
      </trkpt>
      <trkpt lat="43.58061" lon="6.7716">
        <ele>153.3</ele>
        <time>2025-10-24T08:56:10.000Z</time>
      </trkpt>
      <trkpt lat="43.58059" lon="6.77165">
        <ele>153.1</ele>
        <time>2025-10-24T08:56:11.000Z</time>
      </trkpt>
      <trkpt lat="43.58057" lon="6.77172">
        <ele>152.9</ele>
        <time>2025-10-24T08:56:12.000Z</time>
      </trkpt>
      <trkpt lat="43.58057" lon="6.7718">
        <ele>152.9</ele>
        <time>2025-10-24T08:56:13.000Z</time>
      </trkpt>
      <trkpt lat="43.58057" lon="6.77187">
        <ele>153</ele>
        <time>2025-10-24T08:56:14.000Z</time>
      </trkpt>
      <trkpt lat="43.58059" lon="6.77193">
        <ele>153.2</ele>
        <time>2025-10-24T08:56:15.000Z</time>
      </trkpt>
      <trkpt lat="43.58061" lon="6.77197">
        <ele>153.4</ele>
        <time>2025-10-24T08:56:16.000Z</time>
      </trkpt>
      <trkpt lat="43.58064" lon="6.772">
        <ele>153.6</ele>
        <time>2025-10-24T08:56:17.000Z</time>
      </trkpt>
      <trkpt lat="43.58067" lon="6.77202">
        <ele>153.8</ele>
        <time>2025-10-24T08:56:18.000Z</time>
      </trkpt>
      <trkpt lat="43.5807" lon="6.77204">
        <ele>153.9</ele>
        <time>2025-10-24T08:56:19.000Z</time>
      </trkpt>
      <trkpt lat="43.58072" lon="6.77205">
        <ele>154</ele>
        <time>2025-10-24T08:56:20.000Z</time>
        <extensions>
          <visugpx:TrkExtension xmlns:visugpx="https://www.visugpx.com/editgpx/">
            <visugpx:node>1</visugpx:node>
            </visugpx:TrkExtension>
        </extensions>
      </trkpt>
    </trkseg>
  </trk>
</gpx>